Comparison billing benefits electrical Power


Consumption KWH τετραμήνου day: + night: ΟΤΣ: 45.46  
CompanyProduct/kWh 1 /kWh 2 Fixed charge/kWh N Fixed charge N Original Cost Final Cost Other parametersLimit ΟΤΣ Updated on
ΗΡΩΝ Home 1Ν 0,08500 0,09200 0 0,06610 0 66,1166,11 50 20/4/2021
ΕΛΤΑ Home () 0,08400 0,08400 €1 0,06610 0 66,4159,77 Possibility discount συνέπειας 10,00% 65 20/4/2021
WATT + VOLT LIBERTY CHOICE HOME 1 0,05800 0,05800 €21,63 0,04300 0 66,5366,90 With the discount έγκαιρης redemption 45 20/4/2021
WeEnergy WE – GREEN HOME (Γ1) 0,06400 0,06400 €16 0 0 67,2067,20 With the discount έγκαιρης redemption 50 9/4/2021
ΗΡΩΝ Home 1 0,08500 0,09200 0 0 0 68,0068,00 50 20/4/2021
ΕΛΤΑ ΕΛΤΑ Home 2 () 0,08400 0,08400 €1 0 0 68,2061,38 Possibility discount συνέπειας 10,00% 65 20/4/2021
FOS Plus FOS Plus Family Prime Night_ 0,08800 0,08800 0 0,06610 0 68,2168,21 55 20/4/2021
Elpedison 24 Hours Night 0,06390 0,06390 €17,60 0,06390 0 68,7268,72 50 20/4/2021
Elpedison ElectricityHome Simple 0,08590 0,08590 0 0,08590 0 68,7258,41 Possibility discount συνέπειας 15,00% 50 20/4/2021
Elpedison ElectricityHome Night 0,08950 0,08950 0 0,06610 0 69,2658,87 Possibility discount συνέπειας 15,00% 50 20/4/2021
Solar Energy Home Schedule S1N 0,08950 0,08950 0 0,06610 0 69,2663,00 Possibility discount συνέπειας 10,00% at debit energy Day. 55 20/4/2021
ΕΛΤΑ Home () 0,08600 0,08600 €1 0 0 69,8062,82 Possibility discount συνέπειας 10,00% 65 20/4/2021
FOS Plus FOS Plus Family Prime_ 0,08800 0,08800 0 0 0 70,4070,40 55 20/4/2021
Natural Gas Current Home 24/7 Night 0,06590 0,06590 €18 0,06590 0 70,7270,72 55 20/4/2021
Nova Nova Energy Basic 0,08987 0,08987 €1,44 0,06385 0 70,7360,12 Possibility discount συνέπειας 15,00000% 55 26/12/2020
Volterra HOME V1 Night 0,08990 0,08990 0 0,07897 0 70,8367,28 Possibility discount συνέπειας 5,00% 50 20/4/2021
WeEnergy We- Green Home N ( ) 0,07000 0,07000 €16 0,06400 0 71,4071,40 With the discount έγκαιρης redemption 50 9/4/2021
Elpedison ElectricityHome Day 0,08950 0,08950 0 0,08950 0 71,6060,86 Possibility discount συνέπειας 15,00% 50 20/4/2021
Solar Energy Home Schedule S1 0,08950 0,08950 0 0 0 71,6064,44 Possibility discount συνέπειας 10,00% 55 20/4/2021
Volterra Home V1 0,08990 0,08990 0 0 0 71,9268,32 Possibility discount συνέπειας 5,00% 50 20/4/2021
FOS Plus FOS Plus Family Night_(Night Home) 0,09400 0,09400 0 0,06610 0 72,4172,41 55 20/4/2021
Elpedison ElectricityHome Protect Simple 0,08600 0,08600 €4 0,08600 0 72,8061,88 Possibility discount συνέπειας 15,00% 50 20/4/2021
Elpedison ElectricityHome Protect Simple Fixed 0,08600 0,08600 €4 0,08600 0 72,8061,88 Possibility discount συνέπειας 15,00% 0 20/4/2021
Nova Nova Energy Basic N 0,08987 0,08987 €1,44 0,06610 €1,92 72,8861,94 Possibility discount συνέπειας 15,00000% 55 26/12/2020
Elpedison ElectricityHome Protect Night 0,08960 0,08960 €4 0,06610 0 73,3362,33 Possibility discount συνέπειας 15,00% 50 20/4/2021
Elpedison ElectricityHome Protect Night Fixed 0,08960 0,08960 €4 0,06610 0 73,3362,33 Possibility discount συνέπειας 15,00% 0 20/4/2021
ΠΕΤΡΟΓΚΑΖ Red Home Solar 0,09176 0,09176 0 0 0 73,4173,41 Benefits where combine Electrical energy and pv system up to 10 kW 55 20/4/2021
Natural Gas Current Home Night 0,09227 0,09227 €1,52 0,06610 €2 74,7263,51 Possibility discount συνέπειας 15,00% 55 20/4/2021
FOS Plus FOS Plus Family_(Home) 0,09400 0,09400 0 0 0 75,2075,20 55 20/4/2021
Natural Gas Current Home 0,09227 0,09227 €1,52 0,09227 0 75,3464,03 Possibility discount συνέπειας 15,00% 55 20/4/2021
Elpedison ElectricityHome Protect Day 0,08960 0,08960 €4 0,08960 0 75,6864,33 Possibility discount συνέπειας 15,00% 50 20/4/2021
Elpedison ElectricityHome Protect Day Fixed 0,08960 0,08960 €4 0,08960 0 75,6864,33 Possibility discount συνέπειας 15,00% 0 20/4/2021
elin Fixed! Home Night 0,09500 0,09500 €3,92 0,06610 0 77,0370,38 Without Ρήτρα ΟΤΣ Possibility discount συνέπειας 10,00% in debit Daily Energy 0 20/4/2021
elin electricon Home Night 0,09500 0,09500 €3,92 0,06610 0 77,0363,73 Without Ρήτρα ΟΤΣ. Possibility discount συνέπειας 20,00% in debit Daily Energy 0 20/4/2021
elin electricon Home 0,09500 0,09500 €1,68 0 0 77,6862,14 Without Ρήτρα ΟΤΣ. Possibility discount συνέπειας 20,00% in debit Daily Energy 0 20/4/2021
nrg nrg 4ALL 0,06980 0,06980 €22 0 0 77,8480,31 42.37 20/4/2021
WeEnergy We- Green Home N ( ) 0,08000 0,08000 €16 0,06600 0 78,6078,60 50 9/4/2021
WeEnergy WE – GREEN HOME (Γ1) 0,08000 0,08000 €16 0 0 80,0080,00 50 9/4/2021
nrg Basic 0,09800 0,09800 €1,68 0 0 80,0870,54 Possibility discount συνέπειας 15% 42.37 20/4/2021
nrg Basic N 0,09800 0,09800 €3,92 0,07897 0 80,4270,82 Possibility discount συνέπειας 15% 42.37 20/4/2021
ΠΕΤΡΟΓΚΑΖ Red Home Night 0,10588 0,10588 0 0,07879 0 82,0069,70 Possibility discount συνέπειας 15,00% 55 20/4/2021
ΠΕΤΡΟΓΚΑΖ Red Home 0,10588 0,10588 0 0 0 84,7072,00 Possibility discount συνέπειας 15,00% 55 20/4/2021
Solar Energy Home Schedule S1 plus 0,08520 0,08520 €18 0 0 86,1686,16 55 20/4/2021
Volton Volton Unique Flexi N 0,08962 0,08962 €16 0,07694 0 86,4360,87 Possibility discount συνέπειας 30,00% 45 20/4/2021
ZeniΘ POWER HOME Night 0,10717 0,10717 0 0,07502 €4 86,5269,22 Possibility discount συνέπειας 20,00% 55 20/4/2021
Volton Volton Unique Flexi 0,08962 0,08962 €16 0 0 87,7061,76 Possibility discount συνέπειας 30,00% 45 20/4/2021
Protergia Protergia Home N 0,11028 0,11274 €3,91 0,07897 0 89,0089,01 55 20/4/2021
PPC Οικιακό Νυχτερινό Τιμολόγιο - Γ1Ν 0,11058 0,11936 €1,69 0,07897 €2,22 89,2184,76 Δεν υπάρχει Ρήτρα ΟΤΣ. Δυνατότητα έκπτωσης συνέπειας 5,00% 0 20/4/2021
ZeniΘ POWER HOME 0,10717 0,10717 €4 0,10717 0 89,7471,79 Possibility discount συνέπειας 20,00% 55 20/4/2021
Protergia Protergia Home 0,11028 0,11274 €1,69 0 0 89,9189,91 55 20/4/2021
PPC Οικιακό Τιμολόγιο - Γ1 0,11058 0,11936 €1,69 0 0 90,1585,65 Δεν υπάρχει Ρήτρα ΟΤΣ. Δυνατότητα έκπτωσης συνέπειας 5,00% 0 20/4/2021
ZeniΘ Power Home Free 0,09110 0,09110 €19,67 0,09110 0 92,55 0 20/4/2021
ΠΕΤΡΟΓΚΑΖ Red Home Night Fixed 0,12327 0,12327 0 0,10118 0 96,4181,95 Possibility discount συνέπειας 15,00% 55 20/4/2021
ΗΡΩΝ Home Go 0,11000 0,11000 €11,60 0,07850 0 96,4553,05 Possibility discount συνέπειας 45,00% 50 17/4/2021
ΠΕΤΡΟΓΚΑΖ Red Home Fixed 0,12327 0,12327 0 0 0 98,6283,82 Possibility discount συνέπειας 15,00% 55 20/4/2021

€/kWh 1: Η χρέωση της kWh μέχρι 2000 kWh ανά τετράμηνο.

€/kWh 2: Η χρέωση της kWh άνω των 2000 kWh.

€/kWh Ν: Η χρέωση της kWh στο νυχτερινό τιμολόγιο

Πάγιο: Πάγια χρέωση τετραμήνου

Πάγιο Ν: Επιπλέον πάγια χρέωση για το νυχτερινό

Αρχικό κόστος: Το συνολικό κόστος χρεώσεων τετραμήνου με βάση την κατανάλωση kWh μέρας και νύχτας συν τα πάγια. Αν το πρόγραμμα δεν προσφέρει τιμολόγιο νύχτας, η κατανάλωση της νύχτας προστίθεται στην ημερήσια.

Τελικό κόστος: Το αρχικό κόστος μείον την έκπτωση συνέπειας συν την πιθανή επιβάρυνση ΟΤΣ σύμφωνα με την μέσο όρο ΟΤΣ του προηγούμενου τετραμήνου